sensor_id;sensor_type;location;lat;lon;timestamp;pressure;altitude;pressure_sealevel;temperature;humidity
50384;BME280;36301;48.310;12.786;2022-09-06T00:01:54;96533.41;;;15.44;100.00
50384;BME280;36301;48.310;12.786;2022-09-06T00:04:20;96533.41;;;15.44;100.00
50384;BME280;36301;48.310;12.786;2022-09-06T00:06:47;96541.78;;;15.53;100.00
50384;BME280;36301;48.310;12.786;2022-09-06T00:09:13;96547.13;;;15.53;100.00
50384;BME280;36301;48.310;12.786;2022-09-06T00:11:40;96541.81;;;15.46;100.00
50384;BME280;36301;48.310;12.786;2022-09-06T00:14:06;96539.16;;;15.46;100.00
50384;BME280;36301;48.310;12.786;2022-09-06T00:16:33;96534.56;;;15.43;100.00
50384;BME280;36301;48.310;12.786;2022-09-06T00:19:00;96549.81;;;15.43;100.00
50384;BME280;36301;48.310;12.786;2022-09-06T00:21:28;96540.66;;;15.40;100.00
50384;BME280;36301;48.310;12.786;2022-09-06T00:23:55;96540.69;;;15.37;100.00
50384;BME280;36301;48.310;12.786;2022-09-06T00:26:22;96535.72;;;15.28;100.00
50384;BME280;36301;48.310;12.786;2022-09-06T00:28:48;96545.63;;;15.24;100.00
50384;BME280;36301;48.310;12.786;2022-09-06T00:31:18;96542.97;;;15.17;100.00
50384;BME280;36301;48.310;12.786;2022-09-06T00:33:46;96539.91;;;15.11;100.00
50384;BME280;36301;48.310;12.786;2022-09-06T00:36:13;96531.16;;;15.11;100.00
50384;BME280;36301;48.310;12.786;2022-09-06T00:38:40;96534.19;;;15.13;100.00
50384;BME280;36301;48.310;12.786;2022-09-06T00:41:09;96530.75;;;15.09;100.00
50384;BME280;36301;48.310;12.786;2022-09-06T00:43:38;96526.19;;;15.13;100.00
50384;BME280;36301;48.310;12.786;2022-09-06T00:46:06;96524.28;;;15.10;100.00
50384;BME280;36301;48.310;12.786;2022-09-06T00:48:34;96538.75;;;15.09;100.00
50384;BME280;36301;48.310;12.786;2022-09-06T00:51:05;96532.66;;;14.97;100.00
50384;BME280;36301;48.310;12.786;2022-09-06T00:53:33;96525.44;;;15.12;100.00
50384;BME280;36301;48.310;12.786;2022-09-06T00:56:00;96525.44;;;15.12;100.00
50384;BME280;36301;48.310;12.786;2022-09-06T00:58:27;96534.56;;;15.00;100.00
50384;BME280;36301;48.310;12.786;2022-09-06T01:00:54;96538.00;;;14.90;100.00
50384;BME280;36301;48.310;12.786;2022-09-06T01:03:22;96542.94;;;14.88;100.00
50384;BME280;36301;48.310;12.786;2022-09-06T01:08:54;96546.75;;;14.80;100.00
50384;BME280;36301;48.310;12.786;2022-09-06T01:16:57;96531.81;;;14.50;100.00
50384;BME280;36301;48.310;12.786;2022-09-06T01:19:44;96545.16;;;14.50;100.00
50384;BME280;36301;48.310;12.786;2022-09-06T01:25:34;96541.28;;;14.41;100.00
50384;BME280;36301;48.310;12.786;2022-09-06T01:28:45;96542.00;;;14.38;100.00
50384;BME280;36301;48.310;12.786;2022-09-06T01:31:39;96551.16;;;14.37;100.00
50384;BME280;36301;48.310;12.786;2022-09-06T01:36:56;96541.63;;;14.32;100.00
50384;BME280;36301;48.310;12.786;2022-09-06T01:39:40;96546.53;;;14.26;100.00
50384;BME280;36301;48.310;12.786;2022-09-06T01:42:22;96542.72;;;14.20;100.00
50384;BME280;36301;48.310;12.786;2022-09-06T01:44:54;96544.97;;;14.11;100.00
50384;BME280;36301;48.310;12.786;2022-09-06T01:47:33;96553.72;;;14.15;100.00
50384;BME280;36301;48.310;12.786;2022-09-06T01:50:26;96552.56;;;14.09;100.00
50384;BME280;36301;48.310;12.786;2022-09-06T01:55:59;96544.16;;;14.00;100.00
50384;BME280;36301;48.310;12.786;2022-09-06T02:01:02;96556.31;;;14.01;100.00
50384;BME280;36301;48.310;12.786;2022-09-06T02:03:47;96552.84;;;13.93;100.00
50384;BME280;36301;48.310;12.786;2022-09-06T02:06:23;96549.44;;;13.93;100.00
50384;BME280;36301;48.310;12.786;2022-09-06T02:08:56;96548.31;;;13.94;100.00
50384;BME280;36301;48.310;12.786;2022-09-06T02:11:28;96547.50;;;13.86;100.00
50384;BME280;36301;48.310;12.786;2022-09-06T02:14:04;96551.66;;;13.84;100.00
50384;BME280;36301;48.310;12.786;2022-09-06T02:16:34;96553.16;;;13.81;100.00
50384;BME280;36301;48.310;12.786;2022-09-06T02:19:20;96546.31;;;13.80;100.00
50384;BME280;36301;48.310;12.786;2022-09-06T02:21:50;96545.16;;;13.77;100.00
50384;BME280;36301;48.310;12.786;2022-09-06T02:24:22;96542.09;;;13.72;100.00
50384;BME280;36301;48.310;12.786;2022-09-06T02:26:51;96523.78;;;13.63;100.00
50384;BME280;36301;48.310;12.786;2022-09-06T02:29:17;96542.38;;;13.56;100.00
50384;BME280;36301;48.310;12.786;2022-09-06T02:31:47;96541.59;;;13.52;100.00
50384;BME280;36301;48.310;12.786;2022-09-06T02:34:16;96544.63;;;13.50;100.00
50384;BME280;36301;48.310;12.786;2022-09-06T02:36:44;96532.44;;;13.46;100.00
50384;BME280;36301;48.310;12.786;2022-09-06T02:39:11;96539.25;;;13.47;100.00
50384;BME280;36301;48.310;12.786;2022-09-06T02:41:40;96534.31;;;13.45;100.00
50384;BME280;36301;48.310;12.786;2022-09-06T02:44:08;96530.50;;;13.39;100.00
50384;BME280;36301;48.310;12.786;2022-09-06T02:46:35;96527.03;;;13.35;100.00
50384;BME280;36301;48.310;12.786;2022-09-06T02:49:01;96517.88;;;13.29;100.00
50384;BME280;36301;48.310;12.786;2022-09-06T02:51:28;96527.06;;;13.39;100.00
50384;BME280;36301;48.310;12.786;2022-09-06T02:53:55;96536.59;;;13.43;100.00
50384;BME280;36301;48.310;12.786;2022-09-06T02:56:22;96531.28;;;13.43;100.00
50384;BME280;36301;48.310;12.786;2022-09-06T02:58:48;96508.38;;;13.28;100.00
50384;BME280;36301;48.310;12.786;2022-09-06T03:01:15;96525.44;;;13.27;100.00
50384;BME280;36301;48.310;12.786;2022-09-06T03:03:41;96534.63;;;13.33;100.00
50384;BME280;36301;48.310;12.786;2022-09-06T03:06:08;96537.25;;;13.30;100.00
50384;BME280;36301;48.310;12.786;2022-09-06T03:08:34;96529.66;;;13.28;100.00
50384;BME280;36301;48.310;12.786;2022-09-06T03:11:01;96521.28;;;13.30;100.00
50384;BME280;36301;48.310;12.786;2022-09-06T03:13:28;96525.00;;;13.18;100.00
50384;BME280;36301;48.310;12.786;2022-09-06T03:15:57;96523.81;;;13.15;100.00
50384;BME280;36301;48.310;12.786;2022-09-06T03:18:25;96519.59;;;13.11;100.00
50384;BME280;36301;48.310;12.786;2022-09-06T03:20:53;96523.03;;;13.11;100.00
50384;BME280;36301;48.310;12.786;2022-09-06T03:23:23;96523.41;;;13.10;100.00
50384;BME280;36301;48.310;12.786;2022-09-06T03:25:50;96525.69;;;13.11;100.00
50384;BME280;36301;48.310;12.786;2022-09-06T03:28:17;96512.38;;;13.08;100.00
50384;BME280;36301;48.310;12.786;2022-09-06T03:30:45;96518.47;;;13.12;100.00
50384;BME280;36301;48.310;12.786;2022-09-06T03:33:12;96518.84;;;13.10;100.00
50384;BME280;36301;48.310;12.786;2022-09-06T03:35:39;96513.47;;;13.07;100.00
50384;BME280;36301;48.310;12.786;2022-09-06T03:38:07;96522.63;;;13.09;100.00
50384;BME280;36301;48.310;12.786;2022-09-06T03:40:33;96523.00;;;13.08;100.00
50384;BME280;36301;48.310;12.786;2022-09-06T03:42:59;96519.56;;;13.07;100.00
50384;BME280;36301;48.310;12.786;2022-09-06T03:45:26;96527.88;;;13.02;100.00
50384;BME280;36301;48.310;12.786;2022-09-06T03:47:52;96511.84;;;12.91;100.00
50384;BME280;36301;48.310;12.786;2022-09-06T03:50:19;96515.25;;;12.88;100.00
50384;BME280;36301;48.310;12.786;2022-09-06T03:52:45;96499.22;;;12.78;100.00
50384;BME280;36301;48.310;12.786;2022-09-06T03:55:12;96509.13;;;12.84;100.00
50384;BME280;36301;48.310;12.786;2022-09-06T03:57:38;96507.91;;;12.75;100.00
50384;BME280;36301;48.310;12.786;2022-09-06T04:00:05;96512.50;;;12.78;100.00
50384;BME280;36301;48.310;12.786;2022-09-06T04:02:32;96512.09;;;12.76;100.00
50384;BME280;36301;48.310;12.786;2022-09-06T04:04:58;96512.09;;;12.76;100.00
50384;BME280;36301;48.310;12.786;2022-09-06T04:07:25;96507.47;;;12.69;100.00
50384;BME280;36301;48.310;12.786;2022-09-06T04:09:52;96524.19;;;12.69;100.00
50384;BME280;36301;48.310;12.786;2022-09-06T04:12:18;96519.59;;;12.66;100.00
50384;BME280;36301;48.310;12.786;2022-09-06T04:14:44;96530.19;;;12.63;100.00
50384;BME280;36301;48.310;12.786;2022-09-06T04:17:11;96520.28;;;12.60;100.00
50384;BME280;36301;48.310;12.786;2022-09-06T04:19:39;96529.44;;;12.66;100.00
50384;BME280;36301;48.310;12.786;2022-09-06T04:22:06;96532.09;;;12.66;100.00
50384;BME280;36301;48.310;12.786;2022-09-06T04:24:32;96524.13;;;12.62;100.00
50384;BME280;36301;48.310;12.786;2022-09-06T04:26:58;96533.19;;;12.58;100.00
50384;BME280;36301;48.310;12.786;2022-09-06T04:29:25;96533.53;;;12.56;100.00
50384;BME280;36301;48.310;12.786;2022-09-06T04:31:51;96528.56;;;12.55;100.00
50384;BME280;36301;48.310;12.786;2022-09-06T04:34:18;96532.00;;;12.55;100.00
50384;BME280;36301;48.310;12.786;2022-09-06T04:36:45;96535.84;;;12.58;100.00
50384;BME280;36301;48.310;12.786;2022-09-06T04:39:14;96525.91;;;12.55;100.00
50384;BME280;36301;48.310;12.786;2022-09-06T04:41:40;96531.59;;;12.53;100.00
50384;BME280;36301;48.310;12.786;2022-09-06T04:44:07;96525.53;;;12.53;100.00
50384;BME280;36301;48.310;12.786;2022-09-06T04:46:34;96535.09;;;12.61;100.00
50384;BME280;36301;48.310;12.786;2022-09-06T04:49:00;96539.25;;;12.62;100.00
50384;BME280;36301;48.310;12.786;2022-09-06T04:51:27;96532.38;;;12.54;100.00
50384;BME280;36301;48.310;12.786;2022-09-06T04:53:54;96535.09;;;12.61;100.00
50384;BME280;36301;48.310;12.786;2022-09-06T04:56:22;96538.66;;;12.76;100.00
50384;BME280;36301;48.310;12.786;2022-09-06T04:58:50;96542.16;;;12.83;100.00
50384;BME280;36301;48.310;12.786;2022-09-06T05:01:17;96551.69;;;12.91;100.00
50384;BME280;36301;48.310;12.786;2022-09-06T05:03:43;96538.03;;;12.89;100.00
50384;BME280;36301;48.310;12.786;2022-09-06T05:06:21;96537.97;;;12.86;100.00
50384;BME280;36301;48.310;12.786;2022-09-06T05:08:48;96538.13;;;13.00;100.00
50384;BME280;36301;48.310;12.786;2022-09-06T05:11:15;96540.47;;;13.09;100.00
50384;BME280;36301;48.310;12.786;2022-09-06T05:13:42;96542.91;;;13.24;100.00
50384;BME280;36301;48.310;12.786;2022-09-06T05:16:09;96536.16;;;13.34;100.00
50384;BME280;36301;48.310;12.786;2022-09-06T05:18:35;96525.50;;;13.34;100.00
50384;BME280;36301;48.310;12.786;2022-09-06T05:21:02;96541.13;;;13.43;100.00
50384;BME280;36301;48.310;12.786;2022-09-06T05:23:28;96537.00;;;13.49;100.00
50384;BME280;36301;48.310;12.786;2022-09-06T05:25:55;96538.16;;;13.52;100.00
50384;BME280;36301;48.310;12.786;2022-09-06T05:28:21;96543.53;;;13.59;100.00
50384;BME280;36301;48.310;12.786;2022-09-06T05:30:48;96545.84;;;13.64;100.00
50384;BME280;36301;48.310;12.786;2022-09-06T05:33:19;96541.66;;;13.63;100.00
50384;BME280;36301;48.310;12.786;2022-09-06T05:35:47;96545.09;;;13.67;100.00
50384;BME280;36301;48.310;12.786;2022-09-06T05:38:14;96532.19;;;13.69;100.00
50384;BME280;36301;48.310;12.786;2022-09-06T05:40:40;96554.72;;;13.86;100.00
50384;BME280;36301;48.310;12.786;2022-09-06T05:43:06;96553.63;;;13.97;100.00
50384;BME280;36301;48.310;12.786;2022-09-06T05:45:33;96563.22;;;14.09;100.00
50384;BME280;36301;48.310;12.786;2022-09-06T05:48:00;96555.63;;;14.15;100.00
50384;BME280;36301;48.310;12.786;2022-09-06T05:50:26;96561.78;;;14.30;100.00
50384;BME280;36301;48.310;12.786;2022-09-06T05:52:53;96570.97;;;14.46;100.00
50384;BME280;36301;48.310;12.786;2022-09-06T05:55:19;96572.59;;;14.69;100.00
50384;BME280;36301;48.310;12.786;2022-09-06T05:57:46;96565.03;;;14.85;100.00
50384;BME280;36301;48.310;12.786;2022-09-06T06:00:13;96570.38;;;15.03;100.00
50384;BME280;36301;48.310;12.786;2022-09-06T06:02:39;96566.97;;;15.24;100.00
50384;BME280;36301;48.310;12.786;2022-09-06T06:05:06;96575.69;;;16.03;99.87
50384;BME280;36301;48.310;12.786;2022-09-06T06:07:33;96559.50;;;17.16;93.43
50384;BME280;36301;48.310;12.786;2022-09-06T06:10:00;96564.31;;;18.18;88.10
50384;BME280;36301;48.310;12.786;2022-09-06T06:12:26;96565.22;;;18.99;83.34
50384;BME280;36301;48.310;12.786;2022-09-06T06:14:53;96567.78;;;19.33;82.40
50384;BME280;36301;48.310;12.786;2022-09-06T06:17:19;96564.41;;;19.53;79.87
50384;BME280;36301;48.310;12.786;2022-09-06T06:19:46;96573.19;;;20.00;78.98
50384;BME280;36301;48.310;12.786;2022-09-06T06:22:13;96576.22;;;20.42;77.21
50384;BME280;36301;48.310;12.786;2022-09-06T06:24:39;96576.50;;;21.20;73.80
50384;BME280;36301;48.310;12.786;2022-09-06T06:27:07;96584.28;;;22.12;70.73
50384;BME280;36301;48.310;12.786;2022-09-06T06:29:33;96581.84;;;21.40;73.52
50384;BME280;36301;48.310;12.786;2022-09-06T06:32:00;96585.47;;;22.11;70.62
50384;BME280;36301;48.310;12.786;2022-09-06T06:34:27;96586.81;;;22.32;69.66
50384;BME280;36301;48.310;12.786;2022-09-06T06:36:53;96589.03;;;21.92;70.85
50384;BME280;36301;48.310;12.786;2022-09-06T06:39:19;96591.59;;;21.66;71.56
50384;BME280;36301;48.310;12.786;2022-09-06T06:41:46;96596.31;;;21.62;72.84
50384;BME280;36301;48.310;12.786;2022-09-06T06:44:14;96583.38;;;22.32;70.93
50384;BME280;36301;48.310;12.786;2022-09-06T06:46:41;96584.53;;;23.49;66.33
50384;BME280;36301;48.310;12.786;2022-09-06T06:49:08;96581.81;;;23.96;64.13
50384;BME280;36301;48.310;12.786;2022-09-06T06:51:34;96585.69;;;23.73;65.22
50384;BME280;36301;48.310;12.786;2022-09-06T06:54:05;96593.81;;;23.73;64.96
50384;BME280;36301;48.310;12.786;2022-09-06T06:56:34;96595.00;;;23.47;64.77
50384;BME280;36301;48.310;12.786;2022-09-06T06:59:04;96599.53;;;24.32;61.90
50384;BME280;36301;48.310;12.786;2022-09-06T07:01:32;96607.94;;;24.12;63.01
50384;BME280;36301;48.310;12.786;2022-09-06T07:03:59;96592.72;;;24.27;63.11
50384;BME280;36301;48.310;12.786;2022-09-06T07:06:26;96605.25;;;25.09;60.36
50384;BME280;36301;48.310;12.786;2022-09-06T07:09:17;96607.56;;;24.89;60.10
50384;BME280;36301;48.310;12.786;2022-09-06T07:11:45;96606.91;;;25.47;58.99
50384;BME280;36301;48.310;12.786;2022-09-06T07:14:11;96611.69;;;26.10;57.05
50384;BME280;36301;48.310;12.786;2022-09-06T07:16:38;96622.69;;;26.16;56.77
50384;BME280;36301;48.310;12.786;2022-09-06T07:19:05;96610.16;;;24.26;61.06
50384;BME280;36301;48.310;12.786;2022-09-06T07:21:31;96616.22;;;24.74;61.04
50384;BME280;36301;48.310;12.786;2022-09-06T07:24:02;96621.34;;;25.34;58.18
50384;BME280;36301;48.310;12.786;2022-09-06T07:26:35;96624.66;;;24.76;60.24
50384;BME280;36301;48.310;12.786;2022-09-06T07:29:05;96620.88;;;24.30;61.72
50384;BME280;36301;48.310;12.786;2022-09-06T07:31:32;96615.13;;;25.34;58.06
50384;BME280;36301;48.310;12.786;2022-09-06T07:34:19;96621.16;;;25.87;55.59
50384;BME280;36301;48.310;12.786;2022-09-06T07:36:46;96629.06;;;25.63;56.35
50384;BME280;36301;48.310;12.786;2022-09-06T07:39:13;96633.03;;;25.72;57.03
50384;BME280;36301;48.310;12.786;2022-09-06T07:41:39;96636.78;;;25.16;57.10
50384;BME280;36301;48.310;12.786;2022-09-06T07:44:07;96636.47;;;24.39;59.83
50384;BME280;36301;48.310;12.786;2022-09-06T07:46:34;96648.03;;;23.92;63.06
50384;BME280;36301;48.310;12.786;2022-09-06T07:49:03;96633.88;;;25.10;60.48
50384;BME280;36301;48.310;12.786;2022-09-06T07:51:30;96660.25;;;25.59;59.21
50384;BME280;36301;48.310;12.786;2022-09-06T07:53:58;96651.97;;;24.13;61.47
50384;BME280;36301;48.310;12.786;2022-09-06T07:56:44;96664.44;;;24.10;62.17
50384;BME280;36301;48.310;12.786;2022-09-06T07:59:11;96658.09;;;24.39;62.34
50384;BME280;36301;48.310;12.786;2022-09-06T08:01:38;96661.59;;;24.92;60.94
50384;BME280;36301;48.310;12.786;2022-09-06T08:04:06;96657.28;;;25.26;59.58
50384;BME280;36301;48.310;12.786;2022-09-06T08:06:36;96647.66;;;25.03;59.22
50384;BME280;36301;48.310;12.786;2022-09-06T08:09:23;96641.81;;;25.35;57.92
50384;BME280;36301;48.310;12.786;2022-09-06T08:11:50;96645.81;;;25.62;57.33
50384;BME280;36301;48.310;12.786;2022-09-06T08:14:18;96659.69;;;25.73;60.42
50384;BME280;36301;48.310;12.786;2022-09-06T08:16:45;96660.97;;;26.00;57.56
50384;BME280;36301;48.310;12.786;2022-09-06T08:19:13;96654.34;;;26.28;55.17
50384;BME280;36301;48.310;12.786;2022-09-06T08:21:39;96659.78;;;26.28;56.24
50384;BME280;36301;48.310;12.786;2022-09-06T08:24:08;96657.97;;;26.16;55.65
50384;BME280;36301;48.310;12.786;2022-09-06T08:26:38;96648.97;;;25.70;57.44
50384;BME280;36301;48.310;12.786;2022-09-06T08:29:08;96648.91;;;26.10;55.69
50384;BME280;36301;48.310;12.786;2022-09-06T08:31:38;96648.47;;;26.21;56.81
50384;BME280;36301;48.310;12.786;2022-09-06T08:34:05;96652.69;;;26.77;54.77
50384;BME280;36301;48.310;12.786;2022-09-06T08:36:33;96647.88;;;26.26;54.93
50384;BME280;36301;48.310;12.786;2022-09-06T08:39:03;96647.28;;;26.22;56.23
50384;BME280;36301;48.310;12.786;2022-09-06T08:41:44;96641.84;;;26.12;54.53
50384;BME280;36301;48.310;12.786;2022-09-06T08:44:14;96645.59;;;26.70;54.99
50384;BME280;36301;48.310;12.786;2022-09-06T08:47:08;96637.91;;;26.59;52.99
50384;BME280;36301;48.310;12.786;2022-09-06T08:49:41;96636.59;;;25.50;55.60
50384;BME280;36301;48.310;12.786;2022-09-06T09:00:22;96632.34;;;27.05;52.30
50384;BME280;36301;48.310;12.786;2022-09-06T09:02:56;96633.72;;;27.01;51.71
50384;BME280;36301;48.310;12.786;2022-09-06T09:05:29;96629.19;;;27.07;53.44
50384;BME280;36301;48.310;12.786;2022-09-06T09:10:45;96629.34;;;26.43;55.23
50384;BME280;36301;48.310;12.786;2022-09-06T09:13:52;96629.53;;;25.62;56.32
50384;BME280;36301;48.310;12.786;2022-09-06T09:16:22;96622.06;;;25.04;58.65
50384;BME280;36301;48.310;12.786;2022-09-06T09:18:51;96611.97;;;25.76;55.32
50384;BME280;36301;48.310;12.786;2022-09-06T09:21:20;96612.88;;;25.32;56.36
50384;BME280;36301;48.310;12.786;2022-09-06T09:23:58;96610.34;;;24.76;59.62
50384;BME280;36301;48.310;12.786;2022-09-06T09:26:27;96605.09;;;23.94;61.45
50384;BME280;36301;48.310;12.786;2022-09-06T09:29:10;96599.16;;;25.27;57.02
50384;BME280;36301;48.310;12.786;2022-09-06T09:34:09;96586.56;;;26.80;52.84
50384;BME280;36301;48.310;12.786;2022-09-06T09:36:36;96592.16;;;27.76;51.63
50384;BME280;36301;48.310;12.786;2022-09-06T09:39:10;96582.97;;;26.64;52.33
50384;BME280;36301;48.310;12.786;2022-09-06T09:41:40;96584.41;;;27.26;50.89
50384;BME280;36301;48.310;12.786;2022-09-06T09:44:14;96577.41;;;28.06;50.58
50384;BME280;36301;48.310;12.786;2022-09-06T09:46:42;96574.50;;;27.71;50.98
50384;BME280;36301;48.310;12.786;2022-09-06T09:49:14;96572.75;;;27.83;49.70
50384;BME280;36301;48.310;12.786;2022-09-06T09:52:11;96569.06;;;27.23;50.55
50384;BME280;36301;48.310;12.786;2022-09-06T09:54:41;96572.13;;;27.07;50.67
50384;BME280;36301;48.310;12.786;2022-09-06T09:57:13;96570.78;;;27.35;51.76
50384;BME280;36301;48.310;12.786;2022-09-06T09:59:49;96565.91;;;27.15;51.42
50384;BME280;36301;48.310;12.786;2022-09-06T10:02:24;96567.91;;;26.63;52.14
50384;BME280;36301;48.310;12.786;2022-09-06T10:04:53;96561.16;;;25.95;52.97
50384;BME280;36301;48.310;12.786;2022-09-06T10:07:24;96563.97;;;26.55;52.79
50384;BME280;36301;48.310;12.786;2022-09-06T10:10:06;96565.22;;;26.36;52.18
50384;BME280;36301;48.310;12.786;2022-09-06T10:12:38;96545.19;;;26.15;51.13
50384;BME280;36301;48.310;12.786;2022-09-06T10:15:35;96548.34;;;25.95;53.53
50384;BME280;36301;48.310;12.786;2022-09-06T10:18:02;96535.81;;;25.52;55.70
50384;BME280;36301;48.310;12.786;2022-09-06T10:20:34;96543.38;;;26.03;54.31
50384;BME280;36301;48.310;12.786;2022-09-06T10:29:03;96545.53;;;25.13;54.42
50384;BME280;36301;48.310;12.786;2022-09-06T10:40:05;96546.31;;;25.22;56.67
50384;BME280;36301;48.310;12.786;2022-09-06T10:42:47;96541.28;;;25.70;55.65
50384;BME280;36301;48.310;12.786;2022-09-06T10:48:20;96540.94;;;25.50;53.79
50384;BME280;36301;48.310;12.786;2022-09-06T10:51:11;96546.69;;;25.61;54.94
50384;BME280;36301;48.310;12.786;2022-09-06T10:54:05;96537.00;;;25.42;55.74
50384;BME280;36301;48.310;12.786;2022-09-06T10:56:54;96534.00;;;25.40;55.59
50384;BME280;36301;48.310;12.786;2022-09-06T11:02:29;96537.91;;;25.48;54.76
50384;BME280;36301;48.310;12.786;2022-09-06T11:05:05;96536.50;;;25.16;57.37
50384;BME280;36301;48.310;12.786;2022-09-06T11:07:55;96533.69;;;25.38;55.93
50384;BME280;36301;48.310;12.786;2022-09-06T11:10:47;96517.72;;;25.30;56.56
50384;BME280;36301;48.310;12.786;2022-09-06T11:13:20;96524.75;;;25.09;57.31
50384;BME280;36301;48.310;12.786;2022-09-06T11:18:39;96521.56;;;24.71;56.69
50384;BME280;36301;48.310;12.786;2022-09-06T11:24:10;96509.41;;;25.16;57.98
50384;BME280;36301;48.310;12.786;2022-09-06T11:26:45;96515.78;;;25.49;54.96
50384;BME280;36301;48.310;12.786;2022-09-06T11:29:25;96513.84;;;25.68;56.67
50384;BME280;36301;48.310;12.786;2022-09-06T11:31:55;96502.81;;;25.35;55.03
50384;BME280;36301;48.310;12.786;2022-09-06T11:34:50;96508.84;;;25.39;56.67
50384;BME280;36301;48.310;12.786;2022-09-06T11:37:24;96503.84;;;25.19;56.38
50384;BME280;36301;48.310;12.786;2022-09-06T11:45:42;96495.75;;;25.38;56.58
50384;BME280;36301;48.310;12.786;2022-09-06T11:53:26;96495.63;;;25.87;55.03
50384;BME280;36301;48.310;12.786;2022-09-06T12:09:32;96466.25;;;25.85;52.50
50384;BME280;36301;48.310;12.786;2022-09-06T12:12:00;96459.75;;;26.01;53.43
50384;BME280;36301;48.310;12.786;2022-09-06T12:14:41;96454.44;;;26.16;53.07
50384;BME280;36301;48.310;12.786;2022-09-06T12:27:57;96452.41;;;26.35;50.25
50384;BME280;36301;48.310;12.786;2022-09-06T12:33:05;96454.56;;;26.22;51.15
50384;BME280;36301;48.310;12.786;2022-09-06T12:35:33;96437.78;;;26.32;51.69
50384;BME280;36301;48.310;12.786;2022-09-06T12:38:23;96440.31;;;26.45;50.22
50384;BME280;36301;48.310;12.786;2022-09-06T12:40:51;96437.03;;;26.32;48.46
50384;BME280;36301;48.310;12.786;2022-09-06T12:43:21;96442.16;;;26.30;50.81
50384;BME280;36301;48.310;12.786;2022-09-06T12:45:50;96441.09;;;26.36;50.12
50384;BME280;36301;48.310;12.786;2022-09-06T12:48:28;96433.38;;;26.35;50.46
50384;BME280;36301;48.310;12.786;2022-09-06T12:51:04;96425.25;;;26.35;50.90
50384;BME280;36301;48.310;12.786;2022-09-06T12:53:32;96426.88;;;26.51;51.38
50384;BME280;36301;48.310;12.786;2022-09-06T12:56:07;96421.75;;;26.53;49.91
50384;BME280;36301;48.310;12.786;2022-09-06T12:58:35;96404.59;;;26.71;50.24
50384;BME280;36301;48.310;12.786;2022-09-06T13:01:08;96406.97;;;26.78;48.85
50384;BME280;36301;48.310;12.786;2022-09-06T13:03:55;96407.31;;;26.71;49.05
50384;BME280;36301;48.310;12.786;2022-09-06T13:06:24;96406.50;;;26.79;48.70
50384;BME280;36301;48.310;12.786;2022-09-06T13:08:54;96401.31;;;26.67;50.00
50384;BME280;36301;48.310;12.786;2022-09-06T13:11:42;96404.72;;;27.00;48.92
50384;BME280;36301;48.310;12.786;2022-09-06T13:14:18;96404.84;;;26.82;47.23
50384;BME280;36301;48.310;12.786;2022-09-06T13:16:48;96404.22;;;26.87;48.02
50384;BME280;36301;48.310;12.786;2022-09-06T13:21:45;96393.56;;;26.41;47.26
50384;BME280;36301;48.310;12.786;2022-09-06T13:24:43;96403.38;;;26.48;48.41
50384;BME280;36301;48.310;12.786;2022-09-06T13:30:03;96386.47;;;26.77;46.87
50384;BME280;36301;48.310;12.786;2022-09-06T13:32:33;96389.63;;;26.99;45.07
50384;BME280;36301;48.310;12.786;2022-09-06T13:35:00;96395.81;;;27.24;44.97
50384;BME280;36301;48.310;12.786;2022-09-06T13:37:29;96392.38;;;27.38;42.82
50384;BME280;36301;48.310;12.786;2022-09-06T13:39:56;96394.78;;;27.21;44.42
50384;BME280;36301;48.310;12.786;2022-09-06T13:42:32;96387.19;;;27.25;42.87
50384;BME280;36301;48.310;12.786;2022-09-06T13:45:23;96374.78;;;27.09;42.77
50384;BME280;36301;48.310;12.786;2022-09-06T13:47:52;96379.03;;;27.25;42.71
50384;BME280;36301;48.310;12.786;2022-09-06T13:50:39;96380.56;;;27.41;42.76
50384;BME280;36301;48.310;12.786;2022-09-06T13:53:06;96384.66;;;27.36;42.82
50384;BME280;36301;48.310;12.786;2022-09-06T13:55:33;96379.06;;;27.40;43.97
50384;BME280;36301;48.310;12.786;2022-09-06T13:57:59;96375.03;;;27.35;43.47
50384;BME280;36301;48.310;12.786;2022-09-06T14:00:26;96379.34;;;27.03;43.56
50384;BME280;36301;48.310;12.786;2022-09-06T14:02:53;96377.22;;;27.07;42.76
50384;BME280;36301;48.310;12.786;2022-09-06T14:05:21;96385.06;;;26.81;41.03
50384;BME280;36301;48.310;12.786;2022-09-06T14:07:47;96365.66;;;26.98;41.92
50384;BME280;36301;48.310;12.786;2022-09-06T14:10:14;96375.34;;;27.13;42.95
50384;BME280;36301;48.310;12.786;2022-09-06T14:12:40;96378.75;;;26.99;44.13
50384;BME280;36301;48.310;12.786;2022-09-06T14:15:08;96375.19;;;27.17;42.35
50384;BME280;36301;48.310;12.786;2022-09-06T14:17:35;96376.59;;;27.12;42.15
50384;BME280;36301;48.310;12.786;2022-09-06T14:20:02;96367.47;;;27.15;44.60
50384;BME280;36301;48.310;12.786;2022-09-06T14:22:29;96363.03;;;27.27;43.23
50384;BME280;36301;48.310;12.786;2022-09-06T14:24:57;96357.94;;;27.20;42.76
50384;BME280;36301;48.310;12.786;2022-09-06T14:27:24;96362.19;;;26.97;43.06
50384;BME280;36301;48.310;12.786;2022-09-06T14:29:50;96358.09;;;26.78;42.29
50384;BME280;36301;48.310;12.786;2022-09-06T14:32:20;96357.28;;;26.20;45.47
50384;BME280;36301;48.310;12.786;2022-09-06T14:34:48;96364.06;;;25.73;45.82
50384;BME280;36301;48.310;12.786;2022-09-06T14:37:14;96362.88;;;25.83;45.76
50384;BME280;36301;48.310;12.786;2022-09-06T14:39:41;96369.47;;;26.01;45.21
50384;BME280;36301;48.310;12.786;2022-09-06T14:42:08;96348.63;;;26.07;47.42
50384;BME280;36301;48.310;12.786;2022-09-06T14:44:35;96352.66;;;26.21;44.94
50384;BME280;36301;48.310;12.786;2022-09-06T14:47:02;96351.78;;;26.38;44.39